Time;durP1;ratioP1;P1;durP2;ratioP2;P2;SDS_P1;SDS_P2;PMS_P1;PMS_P2;Temp;Humidity;BMP_temperature;BMP_pressure;BME280_temperature;BME280_humidity;BME280_pressure;Samples;Min_cycle;Max_cycle;Signal;HPM_P1;HPM_P2
2022/02/15 00:01:48;;;;;;;4.82;2.13;;;;;;;5.71;77.64;97884.97;4853943;29;20380;-82
2022/02/15 00:04:15;;;;;;;5.22;2.60;;;;;;;5.72;77.71;97889.22;4851940;29;20399;-82
2022/02/15 00:06:40;;;;;;;6.10;2.40;;;;;;;5.68;77.06;97888.13;4846131;29;20033;-81
2022/02/15 00:09:06;;;;;;;5.05;2.58;;;;;;;5.70;77.66;97894.75;4856294;29;20037;-82
2022/02/15 00:11:32;;;;;;;7.90;2.60;;;;;;;5.66;77.85;97884.88;4842330;29;20164;-82
2022/02/15 00:13:58;;;;;;;7.22;3.30;;;;;;;5.76;77.67;97895.66;4861440;29;20041;-82
2022/02/15 00:16:23;;;;;;;6.70;2.70;;;;;;;5.74;78.21;97903.03;4859591;29;20421;-82
2022/02/15 00:18:48;;;;;;;6.90;2.92;;;;;;;5.69;78.14;97895.81;4862252;29;20045;-81
2022/02/15 00:21:14;;;;;;;6.35;2.70;;;;;;;5.63;77.46;97888.03;4872982;29;20040;-82
2022/02/15 00:23:39;;;;;;;5.90;2.50;;;;;;;5.64;77.81;97884.31;4838257;29;20500;-82
2022/02/15 00:26:04;;;;;;;4.57;2.67;;;;;;;5.67;77.99;97892.59;4844958;29;20037;-82
2022/02/15 00:28:30;;;;;;;5.35;2.30;;;;;;;5.63;77.88;97898.63;4846238;29;20029;-81
2022/02/15 00:30:55;;;;;;;5.88;2.95;;;;;;;5.46;78.12;97868.69;4854189;29;20134;-82
2022/02/15 00:33:21;;;;;;;8.43;2.60;;;;;;;5.64;77.77;97900.19;4836592;29;20060;-81
2022/02/15 00:35:46;;;;;;;4.75;2.13;;;;;;;5.64;77.32;97897.56;4851971;29;20100;-82
2022/02/15 00:38:11;;;;;;;5.65;2.63;;;;;;;5.65;77.09;97907.91;4837562;29;20045;-82
2022/02/15 00:40:38;;;;;;;2.80;2.20;;;;;;;5.65;77.58;97913.22;4836626;29;20037;-81
2022/02/15 00:43:04;;;;;;;7.00;3.00;;;;;;;5.65;77.47;97923.81;4847076;29;20030;-81
2022/02/15 00:45:30;;;;;;;4.15;2.97;;;;;;;5.60;77.68;97918.41;4850009;29;20021;-81
2022/02/15 00:47:55;;;;;;;9.07;2.70;;;;;;;5.59;77.82;97926.59;4862669;29;20090;-82
2022/02/15 00:50:21;;;;;;;9.45;3.47;;;;;;;5.64;78.16;97939.91;4852001;29;20037;-81
2022/02/15 00:52:47;;;;;;;4.30;2.53;;;;;;;5.61;77.99;97930.63;4862449;29;20041;-82
2022/02/15 00:55:13;;;;;;;6.80;2.78;;;;;;;5.46;77.83;97917.09;4852214;29;20052;-82
2022/02/15 00:57:40;;;;;;;4.60;2.10;;;;;;;5.55;78.06;97931.56;4852313;29;20409;-82
2022/02/15 01:00:07;;;;;;;7.85;2.40;;;;;;;5.37;77.63;97910.63;4854532;29;20413;-82
2022/02/15 01:02:33;;;;;;;3.72;2.38;;;;;;;5.55;78.03;97941.34;4851124;29;20427;-82
2022/02/15 01:04:58;;;;;;;3.03;2.38;;;;;;;5.54;77.25;97943.19;4850929;29;20040;-82
2022/02/15 01:07:23;;;;;;;12.30;3.13;;;;;;;5.50;78.11;97939.41;4854478;29;20105;-82
2022/02/15 01:09:49;;;;;;;4.97;2.72;;;;;;;5.42;77.76;97929.19;4850689;29;20094;-82
2022/02/15 01:12:14;;;;;;;6.15;2.50;;;;;;;5.48;77.55;97936.22;4849474;29;20050;-82
2022/02/15 01:14:39;;;;;;;4.00;2.25;;;;;;;5.44;77.90;97932.41;4837061;29;20098;-82
2022/02/15 01:17:05;;;;;;;5.45;2.55;;;;;;;5.35;78.21;97931.22;4834760;29;20053;-82
2022/02/15 01:19:31;;;;;;;5.43;2.28;;;;;;;5.38;78.19;97932.56;4851884;29;20030;-82
2022/02/15 01:21:56;;;;;;;5.53;2.30;;;;;;;5.36;77.92;97924.88;4852946;29;20029;-82
2022/02/15 01:24:21;;;;;;;8.75;3.25;;;;;;;5.40;77.88;97938.41;4848495;29;20044;-82
2022/02/15 01:26:47;;;;;;;5.75;2.22;;;;;;;5.32;78.49;97935.13;4850197;29;20044;-81
2022/02/15 01:29:12;;;;;;;9.98;2.58;;;;;;;5.37;77.60;97939.72;4831811;29;20622;-82
2022/02/15 01:31:38;;;;;;;7.63;2.80;;;;;;;5.24;77.66;97916.97;4855029;29;20040;-82
2022/02/15 01:34:03;;;;;;;4.53;2.72;;;;;;;5.23;77.61;97912.75;4859649;29;20037;-82
2022/02/15 01:36:28;;;;;;;6.63;3.95;;;;;;;5.36;77.59;97932.00;4856512;29;20052;-82
2022/02/15 01:38:54;;;;;;;6.50;2.75;;;;;;;5.31;77.74;97933.50;4857492;29;20089;-82
2022/02/15 01:41:19;;;;;;;4.55;2.30;;;;;;;5.28;77.34;97933.19;4841932;29;20514;-82
2022/02/15 01:43:49;;;;;;;5.10;2.63;;;;;;;5.29;77.98;97934.78;4856611;29;20060;-82
2022/02/15 01:46:15;;;;;;;5.00;2.50;;;;;;;5.26;77.96;97928.13;4856492;29;20363;-82
2022/02/15 01:48:42;;;;;;;6.30;2.85;;;;;;;5.05;77.65;97888.31;4839420;29;20040;-82
2022/02/15 01:51:08;;;;;;;6.45;2.85;;;;;;;5.22;77.98;97920.94;4859826;29;20033;-82
2022/02/15 01:53:33;;;;;;;3.58;2.35;;;;;;;5.15;77.32;97909.69;4841376;29;20121;-82
2022/02/15 01:55:59;;;;;;;5.07;2.75;;;;;;;5.15;77.53;97912.31;4845743;29;20119;-82
2022/02/15 01:58:25;;;;;;;8.55;2.53;;;;;;;5.23;77.88;97923.31;4857892;29;20033;-82
2022/02/15 02:00:51;;;;;;;8.57;2.60;;;;;;;5.25;78.23;97936.31;4856392;29;20043;-82
2022/02/15 02:03:16;;;;;;;5.18;3.03;;;;;;;5.13;77.68;97923.13;4852064;29;20041;-82
2022/02/15 02:05:47;;;;;;;15.25;2.92;;;;;;;5.23;77.85;97931.25;4850265;29;20047;-82
2022/02/15 02:08:13;;;;;;;5.55;2.53;;;;;;;5.11;77.69;97908.56;4850963;29;20086;-82
2022/02/15 02:10:39;;;;;;;11.77;2.63;;;;;;;5.15;78.50;97912.31;4849420;29;20381;-82
2022/02/15 02:13:04;;;;;;;4.40;2.90;;;;;;;5.10;77.89;97904.28;4851941;29;20025;-82
2022/02/15 02:15:29;;;;;;;9.30;3.03;;;;;;;5.18;78.37;97909.19;4853290;29;20093;-82
2022/02/15 02:17:55;;;;;;;6.97;2.50;;;;;;;5.11;78.09;97901.41;4849278;29;20037;-82
2022/02/15 02:20:21;;;;;;;8.45;3.20;;;;;;;5.15;77.66;97907.03;4819647;29;20479;-81
2022/02/15 02:22:48;;;;;;;8.20;3.05;;;;;;;5.15;77.92;97914.97;4857308;29;20672;-82
2022/02/15 02:25:17;;;;;;;5.90;2.75;;;;;;;5.11;77.72;97908.56;4838224;29;20064;-82
2022/02/15 02:27:43;;;;;;;5.13;2.47;;;;;;;5.11;78.33;97919.13;4856398;29;20375;-82
2022/02/15 02:30:09;;;;;;;4.70;2.67;;;;;;;5.09;78.54;97910.59;4853530;29;20029;-82
2022/02/15 02:32:35;;;;;;;5.68;2.38;;;;;;;5.08;78.06;97906.38;4857381;29;20025;-82
2022/02/15 02:35:02;;;;;;;3.97;2.50;;;;;;;5.07;77.89;97913.50;4838013;29;20479;-82
2022/02/15 02:37:28;;;;;;;5.85;2.88;;;;;;;5.08;77.76;97914.28;4856420;29;20072;-82
2022/02/15 02:39:55;;;;;;;4.70;2.83;;;;;;;5.06;78.02;97917.19;4842009;29;20129;-81
2022/02/15 02:42:26;;;;;;;5.95;2.65;;;;;;;5.07;78.20;97924.06;4857028;29;20140;-82
2022/02/15 02:44:52;;;;;;;5.22;2.70;;;;;;;5.03;78.23;97922.94;4856077;29;20481;-82
2022/02/15 02:47:18;;;;;;;8.48;3.13;;;;;;;5.05;77.97;97930.63;4855509;29;20039;-82
2022/02/15 02:49:43;;;;;;;7.40;2.95;;;;;;;5.06;77.88;97937.53;4853216;29;20030;-82
2022/02/15 02:52:09;;;;;;;5.60;2.80;;;;;;;4.93;78.41;97925.41;4855484;29;20176;-82
2022/02/15 02:54:34;;;;;;;7.10;3.55;;;;;;;4.98;78.32;97929.97;4860250;29;20044;-82
2022/02/15 02:57:01;;;;;;;9.27;2.83;;;;;;;4.92;78.02;97931.72;4868372;29;20041;-82
2022/02/15 02:59:27;;;;;;;4.38;2.72;;;;;;;5.02;78.53;97953.06;4861173;29;20043;-82
2022/02/15 03:01:53;;;;;;;10.45;3.00;;;;;;;4.84;78.49;97926.81;4857811;29;20128;-82
2022/02/15 03:04:18;;;;;;;3.83;2.25;;;;;;;4.89;78.06;97928.75;4845646;29;20621;-82
2022/02/15 03:06:43;;;;;;;4.97;2.60;;;;;;;4.93;78.04;97948.38;4861304;29;20034;-81
2022/02/15 03:09:09;;;;;;;8.18;2.85;;;;;;;4.90;78.21;97941.72;4864303;29;20112;-81
2022/02/15 03:11:34;;;;;;;4.70;2.67;;;;;;;4.87;78.32;97942.16;4862132;29;20164;-82
2022/02/15 03:14:00;;;;;;;5.32;2.88;;;;;;;4.89;77.96;97944.59;4869779;29;20057;-82
2022/02/15 03:16:26;;;;;;;7.18;2.97;;;;;;;4.96;78.29;97958.47;4863311;29;20068;-82
2022/02/15 03:18:51;;;;;;;3.92;2.92;;;;;;;4.92;78.52;97958.16;4872493;29;20042;-82
2022/02/15 03:21:17;;;;;;;8.98;3.03;;;;;;;4.92;78.08;97960.78;4846479;29;20040;-81
2022/02/15 03:23:42;;;;;;;7.53;2.97;;;;;;;4.95;78.15;97967.47;4860687;29;20056;-82
2022/02/15 03:26:08;;;;;;;8.25;3.00;;;;;;;4.90;78.05;97964.69;4860455;29;20046;-82
2022/02/15 03:28:34;;;;;;;6.68;2.67;;;;;;;4.92;78.28;97978.50;4851167;29;20037;-81
2022/02/15 03:31:00;;;;;;;10.00;2.83;;;;;;;4.90;78.21;97980.56;4865155;29;20371;-82
2022/02/15 03:33:25;;;;;;;5.45;2.58;;;;;;;4.85;78.48;97981.25;4854872;29;20149;-82
2022/02/15 03:35:51;;;;;;;4.93;2.65;;;;;;;4.87;78.19;97981.06;4854390;29;20557;-81
2022/02/15 03:38:17;;;;;;;4.82;3.03;;;;;;;4.81;78.52;97971.38;4858095;29;20085;-82
2022/02/15 03:43:26;;;;;;;7.25;2.42;;;;;;;4.80;78.45;97975.06;4856964;29;20044;-82
2022/02/15 03:45:51;;;;;;;8.93;2.70;;;;;;;4.87;77.93;98000.34;4855420;29;20567;-82
2022/02/15 03:48:16;;;;;;;6.05;2.58;;;;;;;4.86;78.21;97992.66;4835667;29;20044;-82
2022/02/15 03:50:42;;;;;;;5.07;2.83;;;;;;;4.89;78.48;98002.78;4851661;29;20148;-82
2022/02/15 03:53:08;;;;;;;5.85;2.78;;;;;;;4.86;78.26;97996.09;4853916;29;20429;-81
2022/02/15 03:55:34;;;;;;;7.43;2.97;;;;;;;4.90;78.48;97999.88;4867311;29;20443;-81
2022/02/15 03:57:59;;;;;;;2.80;2.00;;;;;;;4.88;78.59;98011.72;4865248;29;20089;-82
2022/02/15 04:00:25;;;;;;;7.75;4.35;;;;;;;4.85;78.85;98020.13;4851632;29;20136;-81
2022/02/15 04:02:50;;;;;;;4.95;2.72;;;;;;;4.83;78.60;98016.88;4851535;29;20041;-82
2022/02/15 04:05:16;;;;;;;3.28;2.15;;;;;;;4.74;78.52;98007.72;4866141;29;20029;-82
2022/02/15 04:07:41;;;;;;;6.35;2.65;;;;;;;4.70;78.45;97998.63;4864308;29;20117;-81
2022/02/15 04:10:07;;;;;;;9.50;2.45;;;;;;;4.78;78.45;98020.25;4834623;29;20466;-82
2022/02/15 04:12:33;;;;;;;5.88;2.15;;;;;;;4.75;78.05;98020.72;4836130;29;20037;-82
2022/02/15 04:14:58;;;;;;;3.88;2.92;;;;;;;4.79;77.97;98026.31;4835820;29;20072;-81
2022/02/15 04:17:23;;;;;;;3.92;2.60;;;;;;;4.74;77.90;98026.25;4865681;29;21560;-82
2022/02/15 04:19:49;;;;;;;6.10;2.38;;;;;;;4.73;78.23;98028.06;4853295;29;20117;-81
2022/02/15 04:22:14;;;;;;;5.70;2.65;;;;;;;4.70;78.27;98028.53;4831910;29;20033;-82
2022/02/15 04:24:40;;;;;;;6.43;2.47;;;;;;;4.69;77.94;98040.13;4821704;29;20109;-82
2022/02/15 04:27:05;;;;;;;3.80;2.10;;;;;;;4.69;77.83;98048.06;4837042;29;20854;-81
2022/02/15 04:29:30;;;;;;;5.97;2.20;;;;;;;4.54;78.21;98021.31;4857128;29;20037;-82
2022/02/15 04:31:56;;;;;;;7.40;2.58;;;;;;;4.63;78.33;98043.69;4832859;29;20621;-82
2022/02/15 04:34:21;;;;;;;7.78;3.03;;;;;;;4.52;78.29;98018.88;4825138;29;20037;-82
2022/02/15 04:36:47;;;;;;;8.02;2.75;;;;;;;4.63;78.16;98034.97;4837243;29;20049;-82
2022/02/15 04:39:12;;;;;;;6.45;3.30;;;;;;;4.62;78.52;98046.56;4851716;29;20120;-82
2022/02/15 04:41:39;;;;;;;5.30;3.60;;;;;;;4.50;78.52;98025.41;4856236;29;20037;-82
2022/02/15 04:44:04;;;;;;;8.23;3.05;;;;;;;4.50;78.55;98036.78;4849289;29;20045;-82
2022/02/15 04:46:30;;;;;;;15.75;4.22;;;;;;;4.51;78.29;98033.13;4833349;29;20038;-82
2022/02/15 04:48:55;;;;;;;5.88;3.53;;;;;;;4.56;78.74;98038.50;4851741;29;20573;-81
2022/02/15 04:51:20;;;;;;;9.55;4.35;;;;;;;4.53;78.65;98035.53;4853434;29;20033;-82
2022/02/15 04:53:46;;;;;;;5.90;3.33;;;;;;;4.61;78.54;98053.69;4851355;29;20045;-82
2022/02/15 04:56:11;;;;;;;6.25;3.58;;;;;;;4.55;78.23;98050.13;4845303;29;20094;-82
2022/02/15 04:58:36;;;;;;;5.50;3.03;;;;;;;4.62;78.73;98062.41;4836554;29;20474;-82
2022/02/15 05:01:02;;;;;;;6.40;3.25;;;;;;;4.63;78.88;98069.31;4830322;29;20038;-81
2022/02/15 05:03:27;;;;;;;6.82;3.70;;;;;;;4.63;78.27;98067.47;4851849;29;20136;-81
2022/02/15 05:05:52;;;;;;;10.45;4.25;;;;;;;4.61;78.07;98077.47;4849915;29;20098;-82
2022/02/15 05:08:17;;;;;;;7.38;3.80;;;;;;;4.65;78.48;98093.69;4850365;29;20031;-82
2022/02/15 05:10:43;;;;;;;6.10;3.88;;;;;;;4.58;78.73;98064.72;4851612;29;20402;-82
2022/02/15 05:13:08;;;;;;;7.55;4.20;;;;;;;4.60;78.44;98082.97;4835871;29;20509;-81
2022/02/15 05:15:35;;;;;;;10.25;4.38;;;;;;;4.61;78.91;98081.97;4850520;29;20049;-81
2022/02/15 05:18:05;;;;;;;5.82;3.78;;;;;;;4.67;78.88;98092.44;4853263;29;20029;-81
2022/02/15 05:20:31;;;;;;;10.20;4.55;;;;;;;4.61;78.40;98076.69;4850926;29;20033;-81
2022/02/15 05:22:56;;;;;;;9.23;4.18;;;;;;;4.73;78.76;98098.63;4851025;29;20109;-82
2022/02/15 05:25:21;;;;;;;7.68;4.63;;;;;;;4.51;78.21;98051.63;4835403;29;20046;-82
2022/02/15 05:27:47;;;;;;;7.45;4.07;;;;;;;4.71;79.09;98087.47;4837729;29;20085;-82
2022/02/15 05:30:12;;;;;;;10.40;5.03;;;;;;;4.78;78.33;98085.53;4848476;29;20037;-82
2022/02/15 05:32:38;;;;;;;11.77;5.60;;;;;;;4.82;78.80;98090.13;4848700;29;20121;-82
2022/02/15 05:35:05;;;;;;;15.13;5.07;;;;;;;4.79;78.77;98089.75;4854350;29;20482;-82
2022/02/15 05:37:30;;;;;;;9.15;5.28;;;;;;;4.71;78.96;98075.06;4837377;29;20193;-82
2022/02/15 05:39:56;;;;;;;8.77;5.10;;;;;;;4.85;79.03;98100.22;4834884;29;20105;-83
2022/02/15 05:42:21;;;;;;;16.20;5.13;;;;;;;4.85;78.91;98099.44;4851644;29;20048;-82
2022/02/15 05:44:47;;;;;;;8.60;4.90;;;;;;;4.85;79.09;98110.81;4848412;29;20048;-82
2022/02/15 05:47:12;;;;;;;7.50;5.30;;;;;;;4.76;78.83;98085.75;4853671;29;20494;-82
2022/02/15 05:50:49;;;;;;;7.68;5.22;;;;;;;4.86;79.38;98107.13;4835992;29;20033;-82
2022/02/15 05:52:22;;;;;;;10.40;5.28;;;;;;;4.83;79.16;98097.00;4849942;29;20061;-82
2022/02/15 05:54:48;;;;;;;7.60;5.97;;;;;;;4.71;79.38;98076.91;4850356;29;20033;-82
2022/02/15 05:57:14;;;;;;;8.93;5.95;;;;;;;4.90;78.94;98107.47;4848257;29;20490;-82
2022/02/15 05:59:39;;;;;;;12.20;5.40;;;;;;;4.85;79.62;98105.50;4836424;29;20078;-82
2022/02/15 06:02:05;;;;;;;11.25;6.00;;;;;;;4.72;79.25;98076.66;4860951;29;20037;-82
2022/02/15 06:04:30;;;;;;;9.30;5.75;;;;;;;4.95;79.46;98116.34;4841601;29;20108;-82
2022/02/15 06:06:55;;;;;;;10.10;5.90;;;;;;;4.93;79.70;98104.38;4856478;29;20033;-87
2022/02/15 06:09:21;;;;;;;11.65;6.78;;;;;;;4.90;79.43;98107.47;4840090;29;20033;-84
2022/02/15 06:11:46;;;;;;;20.60;8.02;;;;;;;4.94;79.89;98119.19;4841746;29;20367;-85
2022/02/15 06:14:12;;;;;;;18.00;7.82;;;;;;;4.77;79.83;98097.13;4857559;29;20072;-85
2022/02/15 06:16:37;;;;;;;16.73;8.13;;;;;;;4.95;80.10;98126.91;4855887;29;20327;-85
2022/02/15 06:19:02;;;;;;;13.48;7.57;;;;;;;4.76;80.16;98100.81;4836618;29;20037;-86
2022/02/15 06:21:28;;;;;;;14.52;7.85;;;;;;;4.96;79.98;98122.41;4838099;29;20025;-86
2022/02/15 06:23:53;;;;;;;13.48;7.30;;;;;;;5.06;80.29;98144.63;4870771;29;20033;-86
2022/02/15 06:26:19;;;;;;;15.98;7.85;;;;;;;5.03;80.25;98134.50;4841190;29;20037;-86
2022/02/15 06:28:44;;;;;;;13.15;6.90;;;;;;;5.05;80.21;98142.19;4840924;29;20068;-86
2022/02/15 06:31:10;;;;;;;12.80;7.47;;;;;;;5.10;80.48;98143.13;4853971;29;20029;-86
2022/02/15 06:33:36;;;;;;;10.70;6.82;;;;;;;5.06;79.91;98149.91;4852472;29;20025;-86
2022/02/15 06:36:03;;;;;;;12.25;6.38;;;;;;;5.00;79.56;98128.88;4835086;29;20485;-86
2022/02/15 06:38:29;;;;;;;15.80;7.00;;;;;;;4.96;79.64;98138.28;4834098;29;20029;-86
2022/02/15 06:40:54;;;;;;;14.30;7.65;;;;;;;5.11;80.36;98165.09;4849909;29;20101;-85
2022/02/15 06:43:20;;;;;;;10.68;6.35;;;;;;;5.09;80.29;98170.59;4851041;29;20080;-86
2022/02/15 06:45:46;;;;;;;10.15;6.55;;;;;;;5.13;80.17;98165.66;4821882;29;20037;-86
2022/02/15 06:48:11;;;;;;;9.95;6.75;;;;;;;4.97;79.43;98153.94;4847932;29;20188;-85
2022/02/15 06:50:38;;;;;;;13.40;7.18;;;;;;;4.88;79.56;98133.34;4838533;29;20124;-86
2022/02/15 06:53:03;;;;;;;10.65;5.82;;;;;;;4.98;79.90;98154.75;4857088;29;20033;-86
2022/02/15 06:55:29;;;;;;;9.13;6.35;;;;;;;5.13;80.46;98176.25;4868603;29;20521;-85
2022/02/15 06:57:54;;;;;;;9.32;6.43;;;;;;;5.13;79.93;98176.25;4855348;29;20044;-86
2022/02/15 07:00:19;;;;;;;14.98;6.45;;;;;;;5.16;79.69;98183.69;4841209;29;20368;-86
2022/02/15 07:02:45;;;;;;;15.05;6.57;;;;;;;5.08;79.62;98165.53;4839708;29;20033;-86
2022/02/15 07:05:10;;;;;;;13.45;6.65;;;;;;;5.13;80.11;98174.38;4839038;29;20041;-86
2022/02/15 07:10:47;;;;;;;9.88;6.32;;;;;;;5.19;79.69;98185.91;4837279;29;20090;-84
2022/02/15 07:13:12;;;;;;;14.80;6.63;;;;;;;5.13;79.98;98171.75;4854494;29;20046;-84
2022/02/15 07:15:38;;;;;;;15.80;7.53;;;;;;;5.21;79.55;98183.81;4841358;29;20129;-84
2022/02/15 07:18:03;;;;;;;10.57;6.35;;;;;;;5.15;80.14;98166.25;4841602;29;20037;-83
2022/02/15 07:24:09;;;;;;;10.93;6.43;;;;;;;5.17;80.16;98187.97;4839844;29;20394;-84
2022/02/15 07:26:34;;;;;;;11.88;6.88;;;;;;;5.19;79.56;98196.47;4823113;29;20048;-84
2022/02/15 07:28:59;;;;;;;12.02;7.88;;;;;;;5.18;80.00;98195.66;4848462;29;20411;-84
2022/02/15 07:31:25;;;;;;;10.68;6.55;;;;;;;5.22;79.61;98196.03;4826505;29;20128;-84
2022/02/15 07:33:50;;;;;;;15.63;8.23;;;;;;;5.22;80.01;98210.03;4837475;29;20483;-84
2022/02/15 07:36:16;;;;;;;12.65;7.32;;;;;;;5.23;80.10;98214.31;4842628;29;20030;-84
2022/02/15 07:38:42;;;;;;;12.40;6.78;;;;;;;5.19;80.62;98215.00;4843559;29;20091;-84
2022/02/15 07:41:07;;;;;;;13.95;7.68;;;;;;;5.21;80.32;98220.88;4837145;29;20046;-84
2022/02/15 07:43:32;;;;;;;15.93;9.35;;;;;;;5.19;80.13;98215.00;4826264;29;20045;-84
2022/02/15 07:45:58;;;;;;;14.48;6.93;;;;;;;5.18;79.86;98213.38;4840295;29;20407;-84
2022/02/15 07:48:23;;;;;;;15.07;7.93;;;;;;;5.18;80.25;98206.25;4842392;29;20068;-84
2022/02/15 07:50:49;;;;;;;10.98;7.85;;;;;;;5.24;80.07;98221.19;4855593;29;20089;-84
2022/02/15 07:53:15;;;;;;;14.80;7.90;;;;;;;5.11;80.55;98192.31;4857709;29;20030;-84
2022/02/15 07:55:41;;;;;;;12.82;6.95;;;;;;;5.26;80.59;98221.78;4845657;29;20399;-84
2022/02/15 07:58:07;;;;;;;15.10;8.38;;;;;;;5.19;80.02;98207.06;4843809;29;20045;-84
2022/02/15 08:00:32;;;;;;;14.98;8.18;;;;;;;5.20;80.27;98214.75;4847007;29;20030;-84
2022/02/15 08:02:58;;;;;;;12.38;7.50;;;;;;;5.32;80.21;98238.59;4825789;29;20030;-84
2022/02/15 08:05:24;;;;;;;14.90;8.68;;;;;;;5.37;80.14;98241.34;4851760;29;20490;-84
2022/02/15 08:07:52;;;;;;;12.77;7.40;;;;;;;5.38;79.74;98235.00;4841976;29;20116;-84
2022/02/15 08:10:18;;;;;;;14.30;8.35;;;;;;;5.40;80.10;98232.94;4843259;29;20074;-84
2022/02/15 08:12:48;;;;;;;12.57;7.57;;;;;;;5.42;80.30;98238.03;4842787;29;20056;-84
2022/02/15 08:15:16;;;;;;;16.55;7.88;;;;;;;5.23;80.24;98218.78;4843744;29;20029;-84
2022/02/15 08:17:42;;;;;;;12.15;7.53;;;;;;;5.43;80.03;98239.63;4849941;29;20037;-84
2022/02/15 08:20:08;;;;;;;20.35;9.23;;;;;;;5.39;80.13;98243.75;4825690;29;20036;-84
2022/02/15 08:22:34;;;;;;;10.55;7.72;;;;;;;5.48;80.52;98252.97;4821551;29;20046;-84
2022/02/15 08:24:59;;;;;;;13.70;7.85;;;;;;;5.49;80.39;98258.03;4841922;29;20037;-84
2022/02/15 08:27:25;;;;;;;15.30;8.05;;;;;;;5.48;80.51;98261.72;4841457;29;20041;-84
2022/02/15 08:29:50;;;;;;;14.02;7.40;;;;;;;5.51;80.09;98269.19;4843393;29;20394;-84
2022/02/15 08:32:15;;;;;;;16.30;8.45;;;;;;;5.50;80.71;98270.25;4833364;29;20030;-84
2022/02/15 08:34:41;;;;;;;14.55;7.72;;;;;;;5.53;79.79;98275.06;4838240;29;20045;-84
2022/02/15 08:37:06;;;;;;;13.75;8.48;;;;;;;5.53;79.82;98272.41;4839401;29;20041;-84
2022/02/15 08:39:31;;;;;;;18.20;8.90;;;;;;;5.48;80.32;98263.56;4841706;29;20029;-84
2022/02/15 08:42:04;;;;;;;16.08;8.75;;;;;;;5.57;80.68;98265.59;4841923;29;20030;-84
2022/02/15 08:44:29;;;;;;;14.52;8.82;;;;;;;5.45;80.36;98241.00;4842868;29;20032;-84
2022/02/15 08:46:55;;;;;;;15.15;9.80;;;;;;;5.58;80.00;98261.94;4825697;29;20113;-84
2022/02/15 08:49:20;;;;;;;15.70;9.07;;;;;;;5.63;80.54;98277.94;4826708;29;20033;-84
2022/02/15 08:51:46;;;;;;;18.05;9.40;;;;;;;5.35;80.51;98234.69;4826753;29;20122;-84
2022/02/15 08:54:12;;;;;;;16.65;10.00;;;;;;;5.40;80.74;98243.53;4843090;29;20029;-84
2022/02/15 08:56:37;;;;;;;17.85;8.95;;;;;;;5.59;80.90;98271.47;4826129;29;20038;-84
2022/02/15 08:59:03;;;;;;;12.70;9.35;;;;;;;5.63;80.87;98287.72;4853027;29;20530;-84
2022/02/15 09:01:28;;;;;;;17.40;9.82;;;;;;;5.62;80.39;98278.97;4838259;29;20048;-84
2022/02/15 09:03:53;;;;;;;15.30;8.85;;;;;;;5.60;80.42;98273.09;4825681;29;20072;-84
2022/02/15 09:06:19;;;;;;;13.27;8.73;;;;;;;5.70;80.22;98286.56;4838741;29;20041;-83
2022/02/15 09:08:44;;;;;;;20.75;9.90;;;;;;;5.71;80.50;98287.38;4828572;29;20033;-83
2022/02/15 09:11:10;;;;;;;15.50;9.75;;;;;;;5.61;79.92;98265.97;4820704;29;20039;-83
2022/02/15 09:13:36;;;;;;;15.25;9.27;;;;;;;5.64;80.32;98268.94;4837797;29;20491;-83
2022/02/15 09:16:01;;;;;;;17.60;9.35;;;;;;;5.73;80.89;98278.16;4827449;29;20036;-83
2022/02/15 09:18:26;;;;;;;14.98;8.93;;;;;;;5.69;80.01;98271.72;4842180;29;20179;-83
2022/02/15 09:20:52;;;;;;;16.27;9.93;;;;;;;5.72;80.17;98278.41;4827890;29;20090;-83
2022/02/15 09:23:17;;;;;;;17.85;10.25;;;;;;;5.79;80.41;98287.81;4842174;29;20113;-83
2022/02/15 09:25:43;;;;;;;15.43;9.85;;;;;;;5.82;80.17;98292.66;4851315;29;20044;-83
2022/02/15 09:28:08;;;;;;;19.02;11.00;;;;;;;5.86;81.05;98295.69;4841660;29;20065;-83
2022/02/15 09:30:33;;;;;;;15.05;9.35;;;;;;;5.87;80.03;98289.34;4843877;29;20042;-83
2022/02/15 09:32:59;;;;;;;15.88;10.63;;;;;;;5.88;79.87;98296.25;4842989;29;20447;-83
2022/02/15 09:35:24;;;;;;;15.73;9.93;;;;;;;5.81;80.47;98277.03;4809528;29;20034;-83
2022/02/15 09:37:49;;;;;;;17.27;10.65;;;;;;;5.69;80.32;98258.47;4823892;29;20098;-83
2022/02/15 09:40:15;;;;;;;15.45;10.90;;;;;;;5.88;79.49;98286.47;4840001;29;20038;-83
2022/02/15 09:42:40;;;;;;;17.42;10.45;;;;;;;5.85;79.75;98276.31;4844301;29;20090;-83
2022/02/15 09:45:07;;;;;;;17.02;10.48;;;;;;;5.93;80.43;98291.06;4826632;29;20422;-83
2022/02/15 09:47:35;;;;;;;18.30;10.35;;;;;;;5.89;79.58;98296.03;4837206;29;20402;-83
2022/02/15 09:50:04;;;;;;;16.80;9.43;;;;;;;5.86;79.97;98291.19;4838843;29;20042;-83
2022/02/15 09:52:29;;;;;;;21.10;10.63;;;;;;;5.95;80.55;98303.06;4858378;29;20410;-83
2022/02/15 09:54:55;;;;;;;16.13;10.45;;;;;;;5.99;79.88;98304.19;4842489;29;20026;-83
2022/02/15 09:57:24;;;;;;;18.30;10.15;;;;;;;6.02;80.17;98310.88;4826311;29;20040;-83
2022/02/15 09:59:50;;;;;;;13.35;9.55;;;;;;;6.05;79.85;98319.16;4849594;29;20030;-83
2022/02/15 10:02:23;;;;;;;16.10;9.77;;;;;;;6.10;80.51;98328.25;4825291;29;20093;-83
2022/02/15 10:04:56;;;;;;;14.50;9.75;;;;;;;6.13;80.26;98325.13;4852687;29;20030;-83
2022/02/15 10:07:23;;;;;;;13.48;9.70;;;;;;;6.14;79.67;98321.47;4841676;29;20061;-83
2022/02/15 10:09:53;;;;;;;14.85;10.10;;;;;;;6.27;80.13;98337.88;4841356;29;20349;-83
2022/02/15 10:12:20;;;;;;;13.60;9.68;;;;;;;6.23;79.71;98320.03;4840798;29;20049;-83
2022/02/15 10:14:47;;;;;;;11.85;8.77;;;;;;;6.26;79.52;98312.44;4841330;29;20040;-83
2022/02/15 10:17:18;;;;;;;14.52;8.50;;;;;;;6.32;79.37;98321.28;4824628;29;20046;-83
2022/02/15 10:19:50;;;;;;;17.67;11.38;;;;;;;6.40;79.03;98327.03;4840305;29;20038;-83
2022/02/15 10:22:20;;;;;;;13.95;8.90;;;;;;;6.41;79.14;98326.00;4824192;29;20060;-83
2022/02/15 10:24:53;;;;;;;16.20;10.20;;;;;;;6.46;78.75;98331.44;4832691;29;20038;-83
2022/02/15 10:27:23;;;;;;;12.98;7.28;;;;;;;6.56;78.78;98333.44;4830434;29;20030;-83
2022/02/15 10:29:48;;;;;;;15.02;9.57;;;;;;;6.49;79.28;98315.03;4835492;29;20026;-83
2022/02/15 10:32:17;;;;;;;12.57;8.65;;;;;;;6.63;78.92;98332.28;4838253;29;20122;-83
2022/02/15 10:34:53;;;;;;;10.32;8.15;;;;;;;6.56;78.70;98320.19;4841031;29;20103;-83
2022/02/15 10:37:19;;;;;;;10.80;7.63;;;;;;;6.72;78.01;98338.03;4825006;29;20029;-83
2022/02/15 10:39:57;;;;;;;15.07;8.25;;;;;;;6.72;78.21;98327.41;4826628;29;20129;-83
2022/02/15 10:42:25;;;;;;;12.98;8.07;;;;;;;6.79;78.17;98330.75;4852622;29;20038;-83
2022/02/15 10:44:57;;;;;;;13.73;8.27;;;;;;;6.74;77.39;98327.97;4847181;29;20049;-83
2022/02/15 10:47:24;;;;;;;13.80;8.18;;;;;;;6.79;76.93;98331.53;4836400;29;20030;-84
2022/02/15 10:49:49;;;;;;;9.80;6.80;;;;;;;6.88;77.18;98336.47;4847902;29;20089;-83
2022/02/15 10:52:15;;;;;;;11.77;7.53;;;;;;;6.78;76.35;98329.13;4847302;29;20453;-83
2022/02/15 10:54:42;;;;;;;10.80;7.20;;;;;;;6.87;76.30;98333.00;4844585;29;20026;-83
2022/02/15 10:57:12;;;;;;;8.75;7.18;;;;;;;6.97;75.66;98327.88;4828592;29;20125;-83
2022/02/15 10:59:41;;;;;;;9.02;6.78;;;;;;;7.04;75.81;98331.19;4844761;29;20029;-83
2022/02/15 11:02:10;;;;;;;9.10;6.93;;;;;;;7.05;75.92;98318.75;4841765;29;20039;-82
2022/02/15 11:04:37;;;;;;;9.98;7.13;;;;;;;7.10;75.42;98326.81;4836617;29;20038;-83
2022/02/15 11:07:06;;;;;;;9.15;6.38;;;;;;;7.16;75.14;98331.16;4842880;29;20029;-83
2022/02/15 11:09:39;;;;;;;10.32;6.53;;;;;;;7.18;75.13;98327.22;4843948;29;20048;-83
2022/02/15 11:12:23;;;;;;;8.88;6.47;;;;;;;7.12;75.01;98324.72;4845351;29;20395;-83
2022/02/15 11:14:55;;;;;;;9.70;6.43;;;;;;;7.21;74.56;98331.22;4841854;29;20026;-83
2022/02/15 11:17:24;;;;;;;11.85;5.88;;;;;;;7.12;75.46;98314.88;4842793;29;20037;-83
2022/02/15 11:20:02;;;;;;;12.15;5.95;;;;;;;7.21;75.14;98332.03;4856972;29;20117;-83
2022/02/15 11:22:27;;;;;;;10.07;6.05;;;;;;;7.26;75.84;98340.09;4835734;29;20042;-83
2022/02/15 11:24:53;;;;;;;11.10;5.93;;;;;;;7.21;74.85;98317.94;4829164;29;20049;-83
2022/02/15 11:27:21;;;;;;;7.55;6.03;;;;;;;7.25;75.91;98325.19;4828436;29;20037;-83
2022/02/15 11:29:56;;;;;;;9.43;6.00;;;;;;;7.21;75.51;98320.59;4846446;29;20050;-83
2022/02/15 11:32:23;;;;;;;7.73;5.83;;;;;;;7.21;75.15;98325.91;4845374;29;20507;-83
2022/02/15 11:34:48;;;;;;;9.50;6.32;;;;;;;7.22;75.24;98319.56;4845287;29;20030;-83
2022/02/15 11:37:25;;;;;;;10.63;6.20;;;;;;;7.23;75.33;98332.59;4842815;29;20052;-83
2022/02/15 11:40:04;;;;;;;12.25;5.95;;;;;;;7.17;75.58;98316.81;4858559;29;20045;-83
2022/02/15 11:42:43;;;;;;;8.10;5.82;;;;;;;7.24;75.69;98336.06;4830376;29;20082;-83